sensor_id;sensor_type;location;lat;lon;timestamp;temperature;humidity
11922;DHT22;6021;51.182;3.160;2023-04-25T00:00:41;7.90;99.90
11922;DHT22;6021;51.182;3.160;2023-04-25T00:03:31;7.70;99.90
11922;DHT22;6021;51.182;3.160;2023-04-25T00:06:21;7.70;99.90
11922;DHT22;6021;51.182;3.160;2023-04-25T00:08:59;7.70;99.90
11922;DHT22;6021;51.182;3.160;2023-04-25T00:16:50;7.90;99.90
11922;DHT22;6021;51.182;3.160;2023-04-25T00:19:24;7.90;99.90
11922;DHT22;6021;51.182;3.160;2023-04-25T00:21:57;7.80;99.90
11922;DHT22;6021;51.182;3.160;2023-04-25T00:24:41;7.90;99.90
11922;DHT22;6021;51.182;3.160;2023-04-25T00:30:09;7.80;99.90
11922;DHT22;6021;51.182;3.160;2023-04-25T00:32:42;7.80;99.90
11922;DHT22;6021;51.182;3.160;2023-04-25T00:35:12;7.80;99.90
11922;DHT22;6021;51.182;3.160;2023-04-25T00:37:53;7.90;99.90
11922;DHT22;6021;51.182;3.160;2023-04-25T00:40:29;7.90;99.90
11922;DHT22;6021;51.182;3.160;2023-04-25T00:43:00;7.90;99.90
11922;DHT22;6021;51.182;3.160;2023-04-25T00:45:30;7.90;99.90
11922;DHT22;6021;51.182;3.160;2023-04-25T00:48:00;7.50;99.90
11922;DHT22;6021;51.182;3.160;2023-04-25T00:50:33;7.60;99.90
11922;DHT22;6021;51.182;3.160;2023-04-25T00:53:04;7.60;99.90
11922;DHT22;6021;51.182;3.160;2023-04-25T00:55:41;7.60;99.90
11922;DHT22;6021;51.182;3.160;2023-04-25T00:58:14;7.50;99.90
11922;DHT22;6021;51.182;3.160;2023-04-25T01:00:53;7.40;99.90
11922;DHT22;6021;51.182;3.160;2023-04-25T01:05:57;7.30;99.90
11922;DHT22;6021;51.182;3.160;2023-04-25T01:08:28;7.40;99.90
11922;DHT22;6021;51.182;3.160;2023-04-25T01:10:58;7.50;99.90
11922;DHT22;6021;51.182;3.160;2023-04-25T01:13:27;7.20;99.90
11922;DHT22;6021;51.182;3.160;2023-04-25T01:15:57;7.40;99.90
11922;DHT22;6021;51.182;3.160;2023-04-25T01:18:30;7.50;99.90
11922;DHT22;6021;51.182;3.160;2023-04-25T01:21:12;7.30;99.90
11922;DHT22;6021;51.182;3.160;2023-04-25T01:23:41;7.30;99.90
11922;DHT22;6021;51.182;3.160;2023-04-25T01:26:17;7.40;99.90
11922;DHT22;6021;51.182;3.160;2023-04-25T01:28:52;7.40;99.90
11922;DHT22;6021;51.182;3.160;2023-04-25T01:31:20;7.30;99.90
11922;DHT22;6021;51.182;3.160;2023-04-25T01:33:59;7.30;99.90
11922;DHT22;6021;51.182;3.160;2023-04-25T01:36:28;7.30;99.90
11922;DHT22;6021;51.182;3.160;2023-04-25T01:39:00;7.20;99.90
11922;DHT22;6021;51.182;3.160;2023-04-25T01:41:29;7.60;99.90
11922;DHT22;6021;51.182;3.160;2023-04-25T01:43:58;7.40;99.90
11922;DHT22;6021;51.182;3.160;2023-04-25T01:46:27;7.50;99.90
11922;DHT22;6021;51.182;3.160;2023-04-25T01:48:55;7.40;99.90
11922;DHT22;6021;51.182;3.160;2023-04-25T01:51:24;7.30;99.90
11922;DHT22;6021;51.182;3.160;2023-04-25T01:53:52;7.30;99.90
11922;DHT22;6021;51.182;3.160;2023-04-25T01:56:22;7.10;99.90
11922;DHT22;6021;51.182;3.160;2023-04-25T01:58:51;7.20;99.90
11922;DHT22;6021;51.182;3.160;2023-04-25T02:01:19;6.90;99.90
11922;DHT22;6021;51.182;3.160;2023-04-25T02:03:48;7.10;99.90
11922;DHT22;6021;51.182;3.160;2023-04-25T02:06:16;7.10;99.90
11922;DHT22;6021;51.182;3.160;2023-04-25T02:08:46;7.00;99.90
11922;DHT22;6021;51.182;3.160;2023-04-25T02:11:17;7.10;99.90
11922;DHT22;6021;51.182;3.160;2023-04-25T02:13:51;7.20;99.90
11922;DHT22;6021;51.182;3.160;2023-04-25T02:16:18;7.00;99.90
11922;DHT22;6021;51.182;3.160;2023-04-25T02:18:48;7.20;99.90
11922;DHT22;6021;51.182;3.160;2023-04-25T02:21:25;7.20;99.90
11922;DHT22;6021;51.182;3.160;2023-04-25T02:23:51;7.30;99.90
11922;DHT22;6021;51.182;3.160;2023-04-25T02:26:23;7.00;99.90
11922;DHT22;6021;51.182;3.160;2023-04-25T02:28:51;7.00;99.90
11922;DHT22;6021;51.182;3.160;2023-04-25T02:31:20;6.80;99.90
11922;DHT22;6021;51.182;3.160;2023-04-25T02:33:49;7.00;99.90
11922;DHT22;6021;51.182;3.160;2023-04-25T02:36:18;6.60;99.90
11922;DHT22;6021;51.182;3.160;2023-04-25T02:38:46;6.90;99.90
11922;DHT22;6021;51.182;3.160;2023-04-25T02:41:15;6.70;99.90
11922;DHT22;6021;51.182;3.160;2023-04-25T02:43:43;6.60;99.90
11922;DHT22;6021;51.182;3.160;2023-04-25T02:46:11;6.70;99.90
11922;DHT22;6021;51.182;3.160;2023-04-25T02:48:42;6.60;99.90
11922;DHT22;6021;51.182;3.160;2023-04-25T02:51:10;6.60;99.90
11922;DHT22;6021;51.182;3.160;2023-04-25T02:53:40;6.70;99.90
11922;DHT22;6021;51.182;3.160;2023-04-25T02:56:10;6.70;99.90
11922;DHT22;6021;51.182;3.160;2023-04-25T02:58:38;6.60;99.90
11922;DHT22;6021;51.182;3.160;2023-04-25T03:01:08;6.70;99.90
11922;DHT22;6021;51.182;3.160;2023-04-25T03:03:38;6.60;99.90
11922;DHT22;6021;51.182;3.160;2023-04-25T03:06:06;6.70;99.90
11922;DHT22;6021;51.182;3.160;2023-04-25T03:08:37;6.50;99.90
11922;DHT22;6021;51.182;3.160;2023-04-25T03:11:06;6.70;99.90
11922;DHT22;6021;51.182;3.160;2023-04-25T03:13:34;6.60;99.90
11922;DHT22;6021;51.182;3.160;2023-04-25T03:16:03;6.70;99.90
11922;DHT22;6021;51.182;3.160;2023-04-25T03:18:36;7.00;99.90
11922;DHT22;6021;51.182;3.160;2023-04-25T03:21:06;6.60;99.90
11922;DHT22;6021;51.182;3.160;2023-04-25T03:23:35;6.60;99.90
11922;DHT22;6021;51.182;3.160;2023-04-25T03:26:03;6.60;99.90
11922;DHT22;6021;51.182;3.160;2023-04-25T03:28:32;6.40;99.90
11922;DHT22;6021;51.182;3.160;2023-04-25T03:31:00;6.70;99.90
11922;DHT22;6021;51.182;3.160;2023-04-25T03:33:28;6.40;99.90
11922;DHT22;6021;51.182;3.160;2023-04-25T03:35:57;6.70;99.90
11922;DHT22;6021;51.182;3.160;2023-04-25T03:38:25;6.70;99.90
11922;DHT22;6021;51.182;3.160;2023-04-25T03:40:54;6.30;99.90
11922;DHT22;6021;51.182;3.160;2023-04-25T03:43:28;6.60;99.90
11922;DHT22;6021;51.182;3.160;2023-04-25T03:45:56;6.40;99.90
11922;DHT22;6021;51.182;3.160;2023-04-25T03:48:25;6.40;99.90
11922;DHT22;6021;51.182;3.160;2023-04-25T03:50:55;6.30;99.90
11922;DHT22;6021;51.182;3.160;2023-04-25T03:53:26;6.40;99.90
11922;DHT22;6021;51.182;3.160;2023-04-25T03:55:54;6.30;99.90
11922;DHT22;6021;51.182;3.160;2023-04-25T03:58:28;6.50;99.90
11922;DHT22;6021;51.182;3.160;2023-04-25T04:00:57;6.30;99.90
11922;DHT22;6021;51.182;3.160;2023-04-25T04:03:32;6.60;99.90
11922;DHT22;6021;51.182;3.160;2023-04-25T04:06:03;6.70;99.90
11922;DHT22;6021;51.182;3.160;2023-04-25T04:08:33;6.40;99.90
11922;DHT22;6021;51.182;3.160;2023-04-25T04:11:04;6.30;99.90
11922;DHT22;6021;51.182;3.160;2023-04-25T04:13:39;6.50;99.90
11922;DHT22;6021;51.182;3.160;2023-04-25T04:16:27;6.20;99.90
11922;DHT22;6021;51.182;3.160;2023-04-25T04:18:46;6.60;99.90
11922;DHT22;6021;51.182;3.160;2023-04-25T04:21:14;6.40;99.90
11922;DHT22;6021;51.182;3.160;2023-04-25T04:23:48;6.50;99.90
11922;DHT22;6021;51.182;3.160;2023-04-25T04:26:15;6.30;99.90
11922;DHT22;6021;51.182;3.160;2023-04-25T04:28:52;6.40;99.90
11922;DHT22;6021;51.182;3.160;2023-04-25T04:31:26;6.40;99.90
11922;DHT22;6021;51.182;3.160;2023-04-25T04:34:00;6.50;99.90
11922;DHT22;6021;51.182;3.160;2023-04-25T04:36:29;6.30;99.90
11922;DHT22;6021;51.182;3.160;2023-04-25T04:38:58;6.50;99.90
11922;DHT22;6021;51.182;3.160;2023-04-25T04:41:29;6.30;99.90
11922;DHT22;6021;51.182;3.160;2023-04-25T04:44:05;6.50;99.90
11922;DHT22;6021;51.182;3.160;2023-04-25T04:46:41;6.30;99.90
11922;DHT22;6021;51.182;3.160;2023-04-25T04:49:19;6.50;99.90
11922;DHT22;6021;51.182;3.160;2023-04-25T04:51:59;6.30;99.90
11922;DHT22;6021;51.182;3.160;2023-04-25T04:54:36;6.70;99.90
11922;DHT22;6021;51.182;3.160;2023-04-25T04:57:22;6.30;99.90
11922;DHT22;6021;51.182;3.160;2023-04-25T05:00:09;6.40;99.90
11922;DHT22;6021;51.182;3.160;2023-04-25T05:16:08;6.60;99.90
11922;DHT22;6021;51.182;3.160;2023-04-25T05:18:41;6.60;99.90
11922;DHT22;6021;51.182;3.160;2023-04-25T05:21:13;6.80;99.90
11922;DHT22;6021;51.182;3.160;2023-04-25T05:23:41;6.60;99.90
11922;DHT22;6021;51.182;3.160;2023-04-25T05:26:13;7.00;99.90
11922;DHT22;6021;51.182;3.160;2023-04-25T05:28:43;7.00;99.90
11922;DHT22;6021;51.182;3.160;2023-04-25T05:31:20;6.90;99.90
11922;DHT22;6021;51.182;3.160;2023-04-25T05:33:51;7.30;99.90
11922;DHT22;6021;51.182;3.160;2023-04-25T05:36:24;6.90;97.10
11922;DHT22;6021;51.182;3.160;2023-04-25T05:39:03;7.20;98.80
11922;DHT22;6021;51.182;3.160;2023-04-25T05:41:39;7.00;97.00
11922;DHT22;6021;51.182;3.160;2023-04-25T05:44:12;7.00;98.10
11922;DHT22;6021;51.182;3.160;2023-04-25T05:46:59;7.10;93.20
11922;DHT22;6021;51.182;3.160;2023-04-25T05:49:35;6.90;81.60
11922;DHT22;6021;51.182;3.160;2023-04-25T05:52:08;7.10;81.00
11922;DHT22;6021;51.182;3.160;2023-04-25T05:57:28;7.30;67.70
11922;DHT22;6021;51.182;3.160;2023-04-25T06:00:17;7.30;64.70
11922;DHT22;6021;51.182;3.160;2023-04-25T06:06:25;7.60;61.30
11922;DHT22;6021;51.182;3.160;2023-04-25T06:09:07;7.30;48.20
11922;DHT22;6021;51.182;3.160;2023-04-25T06:14:49;7.40;29.50
11922;DHT22;6021;51.182;3.160;2023-04-25T06:17:20;7.60;1.00
11922;DHT22;6021;51.182;3.160;2023-04-25T06:19:54;7.40;1.00
11922;DHT22;6021;51.182;3.160;2023-04-25T06:22:22;7.80;1.00
11922;DHT22;6021;51.182;3.160;2023-04-25T06:24:50;7.90;1.00
11922;DHT22;6021;51.182;3.160;2023-04-25T06:27:19;7.70;1.00
11922;DHT22;6021;51.182;3.160;2023-04-25T06:29:47;7.80;1.00
11922;DHT22;6021;51.182;3.160;2023-04-25T06:32:16;7.90;1.00
11922;DHT22;6021;51.182;3.160;2023-04-25T06:34:49;8.10;1.00
11922;DHT22;6021;51.182;3.160;2023-04-25T06:37:21;8.40;1.00
11922;DHT22;6021;51.182;3.160;2023-04-25T06:39:51;8.40;1.00
11922;DHT22;6021;51.182;3.160;2023-04-25T06:42:19;8.50;1.00
11922;DHT22;6021;51.182;3.160;2023-04-25T06:44:47;8.40;1.00
11922;DHT22;6021;51.182;3.160;2023-04-25T06:47:16;8.50;1.00
11922;DHT22;6021;51.182;3.160;2023-04-25T06:49:44;8.50;1.00
11922;DHT22;6021;51.182;3.160;2023-04-25T06:52:13;8.80;1.00
11922;DHT22;6021;51.182;3.160;2023-04-25T06:54:52;9.20;1.00
11922;DHT22;6021;51.182;3.160;2023-04-25T06:57:25;9.10;1.00
11922;DHT22;6021;51.182;3.160;2023-04-25T06:59:57;9.00;1.00
11922;DHT22;6021;51.182;3.160;2023-04-25T07:02:32;8.80;1.00
11922;DHT22;6021;51.182;3.160;2023-04-25T07:05:07;8.70;1.00
11922;DHT22;6021;51.182;3.160;2023-04-25T07:07:40;8.50;1.00
11922;DHT22;6021;51.182;3.160;2023-04-25T07:10:09;8.40;1.00
11922;DHT22;6021;51.182;3.160;2023-04-25T07:12:37;8.50;1.00
11922;DHT22;6021;51.182;3.160;2023-04-25T07:15:14;8.20;1.00
11922;DHT22;6021;51.182;3.160;2023-04-25T07:17:49;8.10;1.00
11922;DHT22;6021;51.182;3.160;2023-04-25T07:20:18;8.20;1.00
11922;DHT22;6021;51.182;3.160;2023-04-25T07:22:51;8.20;1.00
11922;DHT22;6021;51.182;3.160;2023-04-25T07:25:23;8.50;1.00
11922;DHT22;6021;51.182;3.160;2023-04-25T07:27:54;8.80;1.00
11922;DHT22;6021;51.182;3.160;2023-04-25T07:30:23;9.00;1.00
11922;DHT22;6021;51.182;3.160;2023-04-25T07:32:56;9.40;1.00
11922;DHT22;6021;51.182;3.160;2023-04-25T07:35:24;9.40;1.00
11922;DHT22;6021;51.182;3.160;2023-04-25T07:37:54;9.50;1.00
11922;DHT22;6021;51.182;3.160;2023-04-25T07:40:27;9.50;1.00
11922;DHT22;6021;51.182;3.160;2023-04-25T07:42:57;9.70;1.00
11922;DHT22;6021;51.182;3.160;2023-04-25T07:45:28;9.70;1.00
11922;DHT22;6021;51.182;3.160;2023-04-25T07:47:56;9.60;1.00
11922;DHT22;6021;51.182;3.160;2023-04-25T07:50:27;9.80;1.00
11922;DHT22;6021;51.182;3.160;2023-04-25T07:52:57;9.80;1.00
11922;DHT22;6021;51.182;3.160;2023-04-25T07:55:26;10.00;1.00
11922;DHT22;6021;51.182;3.160;2023-04-25T07:58:00;10.00;1.00
11922;DHT22;6021;51.182;3.160;2023-04-25T08:00:37;9.80;1.00
11922;DHT22;6021;51.182;3.160;2023-04-25T08:03:10;9.60;1.00
11922;DHT22;6021;51.182;3.160;2023-04-25T08:05:38;9.40;1.00
11922;DHT22;6021;51.182;3.160;2023-04-25T08:08:07;9.30;1.00
11922;DHT22;6021;51.182;3.160;2023-04-25T08:10:35;9.30;1.00
11922;DHT22;6021;51.182;3.160;2023-04-25T08:13:05;9.40;1.00
11922;DHT22;6021;51.182;3.160;2023-04-25T08:15:35;9.30;1.00
11922;DHT22;6021;51.182;3.160;2023-04-25T08:18:03;9.40;1.00
11922;DHT22;6021;51.182;3.160;2023-04-25T08:20:41;9.30;1.00
11922;DHT22;6021;51.182;3.160;2023-04-25T08:23:09;9.40;1.00
11922;DHT22;6021;51.182;3.160;2023-04-25T08:25:44;9.20;1.00
11922;DHT22;6021;51.182;3.160;2023-04-25T08:28:14;9.20;1.00
11922;DHT22;6021;51.182;3.160;2023-04-25T08:30:45;9.40;1.00
11922;DHT22;6021;51.182;3.160;2023-04-25T08:33:13;9.60;1.00
11922;DHT22;6021;51.182;3.160;2023-04-25T08:35:42;10.00;1.00
11922;DHT22;6021;51.182;3.160;2023-04-25T08:38:13;10.60;1.00
11922;DHT22;6021;51.182;3.160;2023-04-25T08:40:41;10.60;1.00
11922;DHT22;6021;51.182;3.160;2023-04-25T08:43:13;10.70;1.00
11922;DHT22;6021;51.182;3.160;2023-04-25T08:45:44;10.70;1.00
11922;DHT22;6021;51.182;3.160;2023-04-25T08:48:15;10.90;1.00
11922;DHT22;6021;51.182;3.160;2023-04-25T08:50:52;10.60;1.00
11922;DHT22;6021;51.182;3.160;2023-04-25T08:53:25;10.70;1.00
11922;DHT22;6021;51.182;3.160;2023-04-25T08:55:55;10.70;1.00
11922;DHT22;6021;51.182;3.160;2023-04-25T09:00:57;10.70;1.00
11922;DHT22;6021;51.182;3.160;2023-04-25T09:03:30;10.80;1.00
11922;DHT22;6021;51.182;3.160;2023-04-25T09:06:01;10.60;1.00
11922;DHT22;6021;51.182;3.160;2023-04-25T09:08:30;10.70;1.00
11922;DHT22;6021;51.182;3.160;2023-04-25T09:11:03;10.70;1.00
11922;DHT22;6021;51.182;3.160;2023-04-25T09:13:31;10.80;1.00
11922;DHT22;6021;51.182;3.160;2023-04-25T09:16:00;10.90;1.00
11922;DHT22;6021;51.182;3.160;2023-04-25T09:18:33;10.80;1.00
11922;DHT22;6021;51.182;3.160;2023-04-25T09:21:09;10.50;1.00
11922;DHT22;6021;51.182;3.160;2023-04-25T09:23:48;10.30;1.00
11922;DHT22;6021;51.182;3.160;2023-04-25T09:26:33;10.00;1.00
11922;DHT22;6021;51.182;3.160;2023-04-25T09:29:08;9.90;1.00
11922;DHT22;6021;51.182;3.160;2023-04-25T09:31:39;9.80;1.00
11922;DHT22;6021;51.182;3.160;2023-04-25T09:34:11;9.90;1.00
11922;DHT22;6021;51.182;3.160;2023-04-25T09:36:42;9.80;1.00
11922;DHT22;6021;51.182;3.160;2023-04-25T09:39:12;9.90;1.00
11922;DHT22;6021;51.182;3.160;2023-04-25T09:41:45;10.00;1.00
11922;DHT22;6021;51.182;3.160;2023-04-25T09:44:19;9.90;1.00
11922;DHT22;6021;51.182;3.160;2023-04-25T09:46:49;9.90;1.00
11922;DHT22;6021;51.182;3.160;2023-04-25T09:49:21;10.10;1.00
11922;DHT22;6021;51.182;3.160;2023-04-25T09:51:56;10.40;1.00
11922;DHT22;6021;51.182;3.160;2023-04-25T09:54:27;10.60;1.00
11922;DHT22;6021;51.182;3.160;2023-04-25T09:56:56;10.50;1.00
11922;DHT22;6021;51.182;3.160;2023-04-25T09:59:38;10.40;1.00
11922;DHT22;6021;51.182;3.160;2023-04-25T10:02:09;10.20;1.00
11922;DHT22;6021;51.182;3.160;2023-04-25T10:04:40;10.50;1.00
11922;DHT22;6021;51.182;3.160;2023-04-25T10:07:11;10.60;1.00
11922;DHT22;6021;51.182;3.160;2023-04-25T10:09:42;10.80;1.00
11922;DHT22;6021;51.182;3.160;2023-04-25T10:12:14;10.80;1.00
11922;DHT22;6021;51.182;3.160;2023-04-25T10:14:47;10.80;1.00
11922;DHT22;6021;51.182;3.160;2023-04-25T10:17:21;10.90;1.00
11922;DHT22;6021;51.182;3.160;2023-04-25T10:19:54;10.80;1.00
11922;DHT22;6021;51.182;3.160;2023-04-25T10:22:44;10.90;1.00
11922;DHT22;6021;51.182;3.160;2023-04-25T10:25:17;11.00;1.00
11922;DHT22;6021;51.182;3.160;2023-04-25T10:27:46;11.70;1.00
11922;DHT22;6021;51.182;3.160;2023-04-25T10:30:15;12.00;1.00
11922;DHT22;6021;51.182;3.160;2023-04-25T10:32:46;12.40;1.00
11922;DHT22;6021;51.182;3.160;2023-04-25T10:35:29;12.30;1.00
11922;DHT22;6021;51.182;3.160;2023-04-25T10:40:32;11.90;1.00
11922;DHT22;6021;51.182;3.160;2023-04-25T10:46:16;11.50;1.00
11922;DHT22;6021;51.182;3.160;2023-04-25T10:48:49;11.60;1.00
11922;DHT22;6021;51.182;3.160;2023-04-25T10:51:32;11.80;1.00
11922;DHT22;6021;51.182;3.160;2023-04-25T10:54:13;11.80;1.00
11922;DHT22;6021;51.182;3.160;2023-04-25T10:56:40;11.70;1.00
11922;DHT22;6021;51.182;3.160;2023-04-25T10:59:15;11.60;1.00
11922;DHT22;6021;51.182;3.160;2023-04-25T11:01:52;11.70;1.00
11922;DHT22;6021;51.182;3.160;2023-04-25T11:04:34;11.70;1.00
11922;DHT22;6021;51.182;3.160;2023-04-25T11:07:17;11.60;1.00
11922;DHT22;6021;51.182;3.160;2023-04-25T11:09:49;11.30;1.00
11922;DHT22;6021;51.182;3.160;2023-04-25T11:12:29;11.60;1.00
11922;DHT22;6021;51.182;3.160;2023-04-25T11:15:05;11.70;1.00
11922;DHT22;6021;51.182;3.160;2023-04-25T11:17:39;11.60;1.00
11922;DHT22;6021;51.182;3.160;2023-04-25T11:20:14;11.30;1.00
11922;DHT22;6021;51.182;3.160;2023-04-25T11:22:46;11.50;1.00
11922;DHT22;6021;51.182;3.160;2023-04-25T11:25:20;11.40;1.00
11922;DHT22;6021;51.182;3.160;2023-04-25T11:28:05;11.20;1.00
11922;DHT22;6021;51.182;3.160;2023-04-25T11:30:35;11.10;1.00
11922;DHT22;6021;51.182;3.160;2023-04-25T11:33:03;10.90;1.00
11922;DHT22;6021;51.182;3.160;2023-04-25T11:35:35;10.80;1.00
11922;DHT22;6021;51.182;3.160;2023-04-25T11:38:13;10.60;1.00
11922;DHT22;6021;51.182;3.160;2023-04-25T11:40:39;10.50;1.00
11922;DHT22;6021;51.182;3.160;2023-04-25T11:43:12;10.20;1.00
11922;DHT22;6021;51.182;3.160;2023-04-25T11:45:42;9.90;1.00
11922;DHT22;6021;51.182;3.160;2023-04-25T11:48:15;9.60;1.00
11922;DHT22;6021;51.182;3.160;2023-04-25T11:50:43;9.40;1.00
11922;DHT22;6021;51.182;3.160;2023-04-25T11:53:13;9.10;1.00
11922;DHT22;6021;51.182;3.160;2023-04-25T11:55:46;9.10;1.00
11922;DHT22;6021;51.182;3.160;2023-04-25T11:58:16;9.40;1.00
11922;DHT22;6021;51.182;3.160;2023-04-25T12:00:45;9.50;1.00
11922;DHT22;6021;51.182;3.160;2023-04-25T12:03:18;9.70;1.00
11922;DHT22;6021;51.182;3.160;2023-04-25T12:05:52;10.20;1.00
11922;DHT22;6021;51.182;3.160;2023-04-25T12:08:20;10.10;1.00
11922;DHT22;6021;51.182;3.160;2023-04-25T12:10:50;10.30;1.00
11922;DHT22;6021;51.182;3.160;2023-04-25T12:13:40;10.60;1.00
11922;DHT22;6021;51.182;3.160;2023-04-25T12:16:10;10.90;1.00
11922;DHT22;6021;51.182;3.160;2023-04-25T12:18:39;10.80;1.00
11922;DHT22;6021;51.182;3.160;2023-04-25T12:21:09;10.90;1.00
11922;DHT22;6021;51.182;3.160;2023-04-25T12:23:39;10.90;1.00
11922;DHT22;6021;51.182;3.160;2023-04-25T12:26:16;11.10;1.00
11922;DHT22;6021;51.182;3.160;2023-04-25T12:28:50;11.10;1.00
11922;DHT22;6021;51.182;3.160;2023-04-25T12:31:19;11.30;1.00
11922;DHT22;6021;51.182;3.160;2023-04-25T12:33:48;11.00;1.00
11922;DHT22;6021;51.182;3.160;2023-04-25T12:36:16;11.40;1.00
11922;DHT22;6021;51.182;3.160;2023-04-25T12:38:45;11.60;1.00
11922;DHT22;6021;51.182;3.160;2023-04-25T12:41:13;11.70;1.00
11922;DHT22;6021;51.182;3.160;2023-04-25T12:43:45;11.90;1.00
11922;DHT22;6021;51.182;3.160;2023-04-25T12:46:15;11.80;1.00
11922;DHT22;6021;51.182;3.160;2023-04-25T12:48:43;11.70;1.00
11922;DHT22;6021;51.182;3.160;2023-04-25T12:51:12;11.70;1.00
11922;DHT22;6021;51.182;3.160;2023-04-25T12:53:41;11.80;1.00
11922;DHT22;6021;51.182;3.160;2023-04-25T12:56:16;12.20;1.00
11922;DHT22;6021;51.182;3.160;2023-04-25T12:58:48;12.20;1.00
11922;DHT22;6021;51.182;3.160;2023-04-25T13:01:17;11.90;1.00
11922;DHT22;6021;51.182;3.160;2023-04-25T13:03:50;11.70;1.00
11922;DHT22;6021;51.182;3.160;2023-04-25T13:06:20;11.70;1.00
11922;DHT22;6021;51.182;3.160;2023-04-25T13:08:49;11.70;1.00
11922;DHT22;6021;51.182;3.160;2023-04-25T13:11:19;12.10;1.00
11922;DHT22;6021;51.182;3.160;2023-04-25T13:13:50;12.20;1.00
11922;DHT22;6021;51.182;3.160;2023-04-25T13:16:22;12.40;1.00
11922;DHT22;6021;51.182;3.160;2023-04-25T13:18:50;12.80;1.00
11922;DHT22;6021;51.182;3.160;2023-04-25T13:21:27;12.70;1.00
11922;DHT22;6021;51.182;3.160;2023-04-25T13:23:59;12.40;1.00
11922;DHT22;6021;51.182;3.160;2023-04-25T13:26:27;12.20;1.00
11922;DHT22;6021;51.182;3.160;2023-04-25T13:28:56;11.90;1.00
11922;DHT22;6021;51.182;3.160;2023-04-25T13:31:24;11.60;1.00
11922;DHT22;6021;51.182;3.160;2023-04-25T13:33:57;11.40;1.00
11922;DHT22;6021;51.182;3.160;2023-04-25T13:36:25;11.20;1.00
11922;DHT22;6021;51.182;3.160;2023-04-25T13:38:54;11.00;1.00
11922;DHT22;6021;51.182;3.160;2023-04-25T13:41:28;11.20;1.00
11922;DHT22;6021;51.182;3.160;2023-04-25T13:44:02;11.60;1.00
11922;DHT22;6021;51.182;3.160;2023-04-25T13:46:30;11.70;1.00
11922;DHT22;6021;51.182;3.160;2023-04-25T13:49:01;12.00;1.00
11922;DHT22;6021;51.182;3.160;2023-04-25T13:51:32;12.10;1.00
11922;DHT22;6021;51.182;3.160;2023-04-25T13:54:10;12.00;1.00
11922;DHT22;6021;51.182;3.160;2023-04-25T13:56:37;12.20;1.00
11922;DHT22;6021;51.182;3.160;2023-04-25T13:59:10;12.30;1.00
11922;DHT22;6021;51.182;3.160;2023-04-25T14:01:43;12.30;1.00
11922;DHT22;6021;51.182;3.160;2023-04-25T14:04:14;12.20;1.00
11922;DHT22;6021;51.182;3.160;2023-04-25T14:06:45;12.20;1.00
11922;DHT22;6021;51.182;3.160;2023-04-25T14:09:19;11.80;1.00
11922;DHT22;6021;51.182;3.160;2023-04-25T14:11:53;11.30;1.00
11922;DHT22;6021;51.182;3.160;2023-04-25T14:14:33;11.20;1.00
11922;DHT22;6021;51.182;3.160;2023-04-25T14:17:00;11.20;1.00
11922;DHT22;6021;51.182;3.160;2023-04-25T14:19:32;10.80;1.00
11922;DHT22;6021;51.182;3.160;2023-04-25T14:22:06;10.70;1.00
11922;DHT22;6021;51.182;3.160;2023-04-25T14:24:35;10.50;1.00
11922;DHT22;6021;51.182;3.160;2023-04-25T14:27:12;10.80;1.00
11922;DHT22;6021;51.182;3.160;2023-04-25T14:29:45;10.60;1.00
11922;DHT22;6021;51.182;3.160;2023-04-25T14:32:12;10.70;1.00
11922;DHT22;6021;51.182;3.160;2023-04-25T14:34:46;11.10;1.00
11922;DHT22;6021;51.182;3.160;2023-04-25T14:37:17;11.10;1.00
11922;DHT22;6021;51.182;3.160;2023-04-25T14:39:56;11.00;1.00
11922;DHT22;6021;51.182;3.160;2023-04-25T14:42:26;11.00;1.00
11922;DHT22;6021;51.182;3.160;2023-04-25T14:45:00;10.90;1.00
11922;DHT22;6021;51.182;3.160;2023-04-25T14:47:26;10.80;1.00
11922;DHT22;6021;51.182;3.160;2023-04-25T14:50:05;10.70;1.00
11922;DHT22;6021;51.182;3.160;2023-04-25T14:55:05;11.00;1.00
11922;DHT22;6021;51.182;3.160;2023-04-25T14:57:35;11.10;1.00
11922;DHT22;6021;51.182;3.160;2023-04-25T15:00:08;11.20;1.00
11922;DHT22;6021;51.182;3.160;2023-04-25T15:05:18;11.50;1.00
11922;DHT22;6021;51.182;3.160;2023-04-25T15:07:51;11.40;1.00
11922;DHT22;6021;51.182;3.160;2023-04-25T15:10:23;11.50;1.00
11922;DHT22;6021;51.182;3.160;2023-04-25T15:12:56;11.60;1.00
11922;DHT22;6021;51.182;3.160;2023-04-25T15:15:25;11.80;1.00
11922;DHT22;6021;51.182;3.160;2023-04-25T15:18:05;11.90;1.00
11922;DHT22;6021;51.182;3.160;2023-04-25T15:20:32;11.80;1.00
11922;DHT22;6021;51.182;3.160;2023-04-25T15:23:02;12.00;1.00
11922;DHT22;6021;51.182;3.160;2023-04-25T15:25:34;11.70;1.00
11922;DHT22;6021;51.182;3.160;2023-04-25T15:28:03;12.00;1.00
11922;DHT22;6021;51.182;3.160;2023-04-25T15:30:48;11.90;1.00
11922;DHT22;6021;51.182;3.160;2023-04-25T15:33:12;11.70;1.00
11922;DHT22;6021;51.182;3.160;2023-04-25T15:35:42;11.80;1.00
11922;DHT22;6021;51.182;3.160;2023-04-25T15:38:15;11.70;1.00
11922;DHT22;6021;51.182;3.160;2023-04-25T15:40:49;11.50;1.00
11922;DHT22;6021;51.182;3.160;2023-04-25T15:43:19;11.30;1.00
11922;DHT22;6021;51.182;3.160;2023-04-25T15:45:47;11.30;1.00
11922;DHT22;6021;51.182;3.160;2023-04-25T15:48:17;11.30;1.00
11922;DHT22;6021;51.182;3.160;2023-04-25T15:50:46;11.00;1.00
11922;DHT22;6021;51.182;3.160;2023-04-25T15:53:19;10.80;1.00
11922;DHT22;6021;51.182;3.160;2023-04-25T15:55:47;10.90;1.00
11922;DHT22;6021;51.182;3.160;2023-04-25T15:58:15;11.00;1.00
11922;DHT22;6021;51.182;3.160;2023-04-25T16:00:44;10.60;1.00
11922;DHT22;6021;51.182;3.160;2023-04-25T16:03:16;10.70;1.00
11922;DHT22;6021;51.182;3.160;2023-04-25T16:05:47;10.70;1.00
11922;DHT22;6021;51.182;3.160;2023-04-25T16:08:33;10.30;1.00
11922;DHT22;6021;51.182;3.160;2023-04-25T16:11:28;10.50;1.00
11922;DHT22;6021;51.182;3.160;2023-04-25T16:13:55;10.50;1.00
11922;DHT22;6021;51.182;3.160;2023-04-25T16:16:35;10.40;1.00
11922;DHT22;6021;51.182;3.160;2023-04-25T16:19:17;10.50;1.00
11922;DHT22;6021;51.182;3.160;2023-04-25T16:22:00;10.70;1.00
11922;DHT22;6021;51.182;3.160;2023-04-25T16:24:28;10.60;1.00
11922;DHT22;6021;51.182;3.160;2023-04-25T16:26:56;10.30;1.00
11922;DHT22;6021;51.182;3.160;2023-04-25T16:29:28;10.40;1.00
11922;DHT22;6021;51.182;3.160;2023-04-25T16:31:56;10.40;1.00
11922;DHT22;6021;51.182;3.160;2023-04-25T16:34:24;10.60;1.00
11922;DHT22;6021;51.182;3.160;2023-04-25T16:37:02;10.30;1.00
11922;DHT22;6021;51.182;3.160;2023-04-25T16:39:34;10.30;1.00
11922;DHT22;6021;51.182;3.160;2023-04-25T16:42:11;10.30;1.00
11922;DHT22;6021;51.182;3.160;2023-04-25T16:44:48;10.20;1.00
11922;DHT22;6021;51.182;3.160;2023-04-25T16:47:17;10.00;1.00
11922;DHT22;6021;51.182;3.160;2023-04-25T16:49:47;9.90;1.00
11922;DHT22;6021;51.182;3.160;2023-04-25T16:52:29;10.10;1.00
11922;DHT22;6021;51.182;3.160;2023-04-25T16:55:13;10.00;1.00
11922;DHT22;6021;51.182;3.160;2023-04-25T16:57:52;10.30;1.00
11922;DHT22;6021;51.182;3.160;2023-04-25T17:00:30;10.00;1.00
11922;DHT22;6021;51.182;3.160;2023-04-25T17:03:01;10.10;1.00
11922;DHT22;6021;51.182;3.160;2023-04-25T17:05:33;9.90;1.00
11922;DHT22;6021;51.182;3.160;2023-04-25T17:08:01;9.80;1.00
11922;DHT22;6021;51.182;3.160;2023-04-25T17:10:32;9.80;1.00
11922;DHT22;6021;51.182;3.160;2023-04-25T17:13:03;9.60;1.00
11922;DHT22;6021;51.182;3.160;2023-04-25T17:15:34;9.90;1.00
11922;DHT22;6021;51.182;3.160;2023-04-25T17:20:48;9.70;1.00
11922;DHT22;6021;51.182;3.160;2023-04-25T17:23:23;9.70;1.00
11922;DHT22;6021;51.182;3.160;2023-04-25T17:25:51;9.60;1.00